This is the latest recevied weather packets stored in our database for station/object KC1ELF. If no packets are shown the sender has not sent any weather packets the latest 10 day(s).
| Time | Temp. | Humidity | Pressure | Rain* | Wind** | Luminosity | Snow |
|---|---|---|---|---|---|---|---|
| 1777825896 | 8.89° C | 64% | 1005.4 hPa | 0 mm | - | - | - |
| 1777825295 | 8.89° C | 70% | 1005.4 hPa | 0 mm | - | - | - |
| 1777824696 | 8.33° C | 71% | 1005.5 hPa | 0 mm | - | - | - |
| 1777824094 | 8.33° C | 72% | 1005.4 hPa | 0 mm | - | - | - |
| 1777823495 | 8.89° C | 71% | 1005.7 hPa | 0 mm | - | - | - |
| 1777822895 | 8.33° C | 74% | 1005.5 hPa | 0 mm | - | - | - |
| 1777822295 | 8.33° C | 74% | 1005.5 hPa | 0 mm | - | - | - |
| 1777821695 | 8.33° C | 74% | 1005.6 hPa | 0 mm | - | - | - |
| 1777821096 | 7.78° C | 74% | 1005.6 hPa | 0 mm | - | - | - |
| 1777820495 | 7.78° C | 77% | 1005.5 hPa | 0 mm | - | - | - |
| 1777819895 | 8.33° C | 75% | 1005.7 hPa | 0 mm | - | - | - |
| 1777819295 | 8.33° C | 76% | 1005.5 hPa | 0 mm | - | - | - |
| 1777818695 | 8.33° C | 77% | 1005.5 hPa | 0 mm | - | - | - |
| 1777818095 | 8.33° C | 78% | 1005.4 hPa | 0 mm | - | - | - |
| 1777817496 | 8.33° C | 78% | 1005.5 hPa | 0 mm | - | - | - |
| 1777816895 | 8.33° C | 80% | 1005.5 hPa | 0 mm | - | - | - |
| 1777816295 | 8.33° C | 80% | 1005.6 hPa | 0 mm | - | - | - |
| 1777815695 | 7.78° C | 81% | 1005.6 hPa | 0 mm | - | - | - |
| 1777815095 | 7.78° C | 81% | 1005.7 hPa | 0 mm | - | - | - |
| 1777814496 | 7.78° C | 79% | 1005.8 hPa | 0 mm | - | - | - |
| 1777813896 | 7.78° C | 81% | 1005.8 hPa | 0 mm | - | - | - |
| 1777813296 | 7.78° C | 83% | 1005.7 hPa | 0 mm | - | - | - |
| 1777812696 | 6.67° C | 85% | 1005.9 hPa | 0 mm | - | - | - |
| 1777812095 | 6.67° C | 85% | 1006 hPa | 0 mm | - | - | - |
| 1777811495 | 6.67° C | 86% | 1005.9 hPa | 0 mm | - | - | - |
* Rain latest hour (hover to see other rain measurements)
** Current wind speed in m/s (hover to see current wind gust speed)